NCAR-RAP Real-Time Weather Data

Output produced by METARs form (12 May 2021  11:45 UTC)
found at http://weather.rap.ucar.edu/surface/
 
KDVN 121052Z AUTO 00000KT 10SM CLR 02/00 A3046 RMK AO2 SLP315 T00220000
KDVN 120952Z AUTO 00000KT 10SM CLR 04/00 A3045 RMK AO2 SLP310 T00390000
KDVN 120852Z AUTO 00000KT 10SM CLR 04/M01 A3044 RMK AO2 SLP305 T00441006 55000
KDVN 120752Z AUTO 16004KT 10SM CLR 04/00 A3043 RMK AO2 SLP303 T00440000
KDVN 120652Z AUTO 17005KT 10SM CLR 06/01 A3043 RMK AO2 SLP305 T00560006
KDVN 120552Z AUTO 14008KT 10SM CLR 07/02 A3044 RMK AO2 SLP306 T00670017 10139 20067 401500028 51006
KDVN 120452Z AUTO 12008KT 10SM CLR 07/02 A3044 RMK AO2 SLP306 T00720017
KDVN 120352Z AUTO 06007KT 10SM CLR 08/M01 A3042 RMK AO2 SLP302 T00781006
KDVN 120252Z AUTO 05005KT 10SM CLR 09/01 A3042 RMK AO2 SLP299 T00890006 53021
KDVN 120152Z AUTO 03004KT 10SM CLR 10/M01 A3040 RMK AO2 SLP292 T01001006
KDVN 120052Z AUTO 06006KT 10SM CLR 12/M01 A3037 RMK AO2 SLP283 T01171011
KDVN 112352Z AUTO 05009KT 10SM CLR 14/M02 A3035 RMK AO2 SLP277 T01391017 10150 20128 53006
KDVN 112252Z AUTO 09007G14KT 10SM CLR 14/M03 A3034 RMK AO2 SLP276 T01441028
KDVN 112152Z AUTO 08008G15KT 10SM CLR 14/M02 A3033 RMK AO2 SLP271 T01441017
KDVN 112052Z AUTO 06006KT 10SM CLR 14/M01 A3033 RMK AO2 SLP271 T01441011 56010